Etusivu
METAR-TAF:

METAR-TAF

Lentoasemat :

Port of Spain, Trinidad, Trinidad ja Tobago

Leveyspiiri: 10-37N, Pituuspiiri: 061-21W, korkeus merenpinnasta: 12 m

Tämänhetkinen sää

Tämä raportti tehtiin 34 minuuttia sitten, kello 20.00 UTC
Tuuli 13 kn idästä
Lämpötila 30°C
Kosteus 62%
Ilmanpaine 1011 hPa
Näkyvyys 10 km tai enemmän
Muutamia pilviä 2800 ft:n korkeudessa

METAR: TTPP 212000Z 10013KT 9999 FEW028 30/22 Q1011 NOSIG

Aika: 16:34 (20:34 UTC)

Sääennuste

Tämä raportti tehtiin 4 tuntia ja 34 minuuttia sitten, kello 16.00 UTC
Ennuste voimassa 21. päivästä klo 18 UTC - 22. päivään klo 18 UTC
Tuuli 15 kn idästä
Näkyvyys 10 km tai enemmän
Hajanaisia pilviä 2500 ft:n korkeudessa
Tulossa
21. päivästä klo 23 UTC - 22. päivään klo 01 UTC
Tuuli 5 kn idästä
Muutamia pilviä 1800 ft:n korkeudessa

TAF: TTPP 211600Z 2118/2218 10015KT 9999 SCT025 BECMG 2123/2201 08005KT FEW018

Säähavainnot ja -ennusteet yli 4000 lentoasemalta (METAR- ja TAF-raportit).

Käytössä olevat sääasemat on merkitty karttaan keltaisilla ja punaisilla pisteillä.

Aseta hiiri pisteen päälle nähdäksesi sääaseman nimen.

Klikkaa sitten nähdäksesi säähavainnot ja -ennusteet.

Kartan vaihtaminen: klikkaa mustalla rastilla varustettuja vihreitä pisteitä, niin voit zoomata sisään; viivalla varustettua vihreää pistettä, niin voit zoomata ulos tai vihreitä nuolia, niin pääset viereisille kartoille.


METAR-TAF: